sensor_id;sensor_type;location;lat;lon;timestamp;P1;durP1;ratioP1;P2;durP2;ratioP2
18286;SDS011;9269;50.838;12.094;2023-03-24T00:00:07;2.80;;;2.60;;
18286;SDS011;9269;50.838;12.094;2023-03-24T00:02:40;3.60;;;3.30;;
18286;SDS011;9269;50.838;12.094;2023-03-24T00:05:16;7.67;;;4.43;;
18286;SDS011;9269;50.838;12.094;2023-03-24T00:07:47;10.20;;;5.97;;
18286;SDS011;9269;50.838;12.094;2023-03-24T00:10:20;5.53;;;4.00;;
18286;SDS011;9269;50.838;12.094;2023-03-24T00:12:49;9.93;;;6.17;;
18286;SDS011;9269;50.838;12.094;2023-03-24T00:15:19;6.73;;;5.77;;
18286;SDS011;9269;50.838;12.094;2023-03-24T00:17:51;8.63;;;5.80;;
18286;SDS011;9269;50.838;12.094;2023-03-24T00:20:21;6.23;;;5.30;;
18286;SDS011;9269;50.838;12.094;2023-03-24T00:22:53;5.23;;;4.63;;
18286;SDS011;9269;50.838;12.094;2023-03-24T00:25:26;8.67;;;5.23;;
18286;SDS011;9269;50.838;12.094;2023-03-24T00:27:55;5.37;;;4.87;;
18286;SDS011;9269;50.838;12.094;2023-03-24T00:30:24;5.47;;;4.20;;
18286;SDS011;9269;50.838;12.094;2023-03-24T00:32:54;4.63;;;4.13;;
18286;SDS011;9269;50.838;12.094;2023-03-24T00:35:25;5.20;;;3.90;;
18286;SDS011;9269;50.838;12.094;2023-03-24T00:37:53;4.90;;;4.40;;
18286;SDS011;9269;50.838;12.094;2023-03-24T00:40:22;6.13;;;4.00;;
18286;SDS011;9269;50.838;12.094;2023-03-24T00:42:50;4.30;;;3.90;;
18286;SDS011;9269;50.838;12.094;2023-03-24T00:45:20;4.80;;;4.30;;
18286;SDS011;9269;50.838;12.094;2023-03-24T00:47:49;4.33;;;3.93;;
18286;SDS011;9269;50.838;12.094;2023-03-24T00:50:22;4.73;;;4.33;;
18286;SDS011;9269;50.838;12.094;2023-03-24T00:52:53;5.27;;;4.20;;
18286;SDS011;9269;50.838;12.094;2023-03-24T00:55:24;5.00;;;4.10;;
18286;SDS011;9269;50.838;12.094;2023-03-24T00:57:54;4.67;;;4.10;;
18286;SDS011;9269;50.838;12.094;2023-03-24T01:00:23;4.47;;;4.07;;
18286;SDS011;9269;50.838;12.094;2023-03-24T01:02:55;4.60;;;4.20;;
18286;SDS011;9269;50.838;12.094;2023-03-24T01:05:27;4.03;;;3.60;;
18286;SDS011;9269;50.838;12.094;2023-03-24T01:07:57;4.17;;;3.70;;
18286;SDS011;9269;50.838;12.094;2023-03-24T01:10:30;4.40;;;3.50;;
18286;SDS011;9269;50.838;12.094;2023-03-24T01:13:00;4.00;;;3.60;;
18286;SDS011;9269;50.838;12.094;2023-03-24T01:15:30;4.53;;;3.70;;
18286;SDS011;9269;50.838;12.094;2023-03-24T01:18:00;4.00;;;3.60;;
18286;SDS011;9269;50.838;12.094;2023-03-24T01:20:30;4.27;;;3.87;;
18286;SDS011;9269;50.838;12.094;2023-03-24T01:22:59;4.37;;;3.90;;
18286;SDS011;9269;50.838;12.094;2023-03-24T01:25:28;3.83;;;3.50;;
18286;SDS011;9269;50.838;12.094;2023-03-24T01:27:57;3.97;;;3.57;;
18286;SDS011;9269;50.838;12.094;2023-03-24T01:30:27;5.50;;;3.43;;
18286;SDS011;9269;50.838;12.094;2023-03-24T01:32:56;3.40;;;3.10;;
18286;SDS011;9269;50.838;12.094;2023-03-24T01:35:25;3.53;;;3.23;;
18286;SDS011;9269;50.838;12.094;2023-03-24T01:37:57;3.70;;;3.40;;
18286;SDS011;9269;50.838;12.094;2023-03-24T01:40:28;3.50;;;3.20;;
18286;SDS011;9269;50.838;12.094;2023-03-24T01:42:58;3.50;;;3.30;;
18286;SDS011;9269;50.838;12.094;2023-03-24T01:45:39;3.60;;;3.33;;
18286;SDS011;9269;50.838;12.094;2023-03-24T01:48:24;3.57;;;3.27;;
18286;SDS011;9269;50.838;12.094;2023-03-24T01:50:56;4.40;;;3.83;;
18286;SDS011;9269;50.838;12.094;2023-03-24T01:53:29;3.70;;;3.40;;
18286;SDS011;9269;50.838;12.094;2023-03-24T01:55:59;3.60;;;3.30;;
18286;SDS011;9269;50.838;12.094;2023-03-24T01:58:29;3.90;;;3.20;;
18286;SDS011;9269;50.838;12.094;2023-03-24T02:01:00;3.20;;;2.90;;
18286;SDS011;9269;50.838;12.094;2023-03-24T02:03:30;4.60;;;3.23;;
18286;SDS011;9269;50.838;12.094;2023-03-24T02:06:04;3.50;;;3.20;;
18286;SDS011;9269;50.838;12.094;2023-03-24T02:08:37;3.80;;;3.47;;
18286;SDS011;9269;50.838;12.094;2023-03-24T02:11:08;3.50;;;3.20;;
18286;SDS011;9269;50.838;12.094;2023-03-24T02:13:37;3.37;;;3.07;;
18286;SDS011;9269;50.838;12.094;2023-03-24T02:16:13;3.53;;;3.03;;
18286;SDS011;9269;50.838;12.094;2023-03-24T02:18:51;4.20;;;3.43;;
18286;SDS011;9269;50.838;12.094;2023-03-24T02:21:33;3.40;;;3.07;;
18286;SDS011;9269;50.838;12.094;2023-03-24T02:24:49;3.80;;;3.20;;
18286;SDS011;9269;50.838;12.094;2023-03-24T02:27:55;3.60;;;3.30;;
18286;SDS011;9269;50.838;12.094;2023-03-24T02:30:49;3.67;;;3.23;;
18286;SDS011;9269;50.838;12.094;2023-03-24T02:33:42;4.20;;;3.00;;
18286;SDS011;9269;50.838;12.094;2023-03-24T02:36:43;3.23;;;2.93;;
18286;SDS011;9269;50.838;12.094;2023-03-24T02:39:40;4.20;;;2.90;;
18286;SDS011;9269;50.838;12.094;2023-03-24T02:42:41;3.27;;;3.00;;
18286;SDS011;9269;50.838;12.094;2023-03-24T02:45:17;4.03;;;3.30;;
18286;SDS011;9269;50.838;12.094;2023-03-24T02:47:55;3.80;;;3.13;;
18286;SDS011;9269;50.838;12.094;2023-03-24T02:50:38;4.57;;;3.33;;
18286;SDS011;9269;50.838;12.094;2023-03-24T02:53:10;3.50;;;3.20;;
18286;SDS011;9269;50.838;12.094;2023-03-24T02:55:49;3.00;;;2.70;;
18286;SDS011;9269;50.838;12.094;2023-03-24T02:58:22;4.33;;;3.23;;
18286;SDS011;9269;50.838;12.094;2023-03-24T03:00:59;3.50;;;3.20;;
18286;SDS011;9269;50.838;12.094;2023-03-24T03:03:33;4.77;;;3.37;;
18286;SDS011;9269;50.838;12.094;2023-03-24T03:06:08;3.50;;;3.20;;
18286;SDS011;9269;50.838;12.094;2023-03-24T03:08:41;3.70;;;3.40;;
18286;SDS011;9269;50.838;12.094;2023-03-24T03:11:15;4.20;;;3.50;;
18286;SDS011;9269;50.838;12.094;2023-03-24T03:13:46;3.80;;;3.40;;
18286;SDS011;9269;50.838;12.094;2023-03-24T03:16:18;4.00;;;3.37;;
18286;SDS011;9269;50.838;12.094;2023-03-24T03:18:54;3.37;;;3.00;;
18286;SDS011;9269;50.838;12.094;2023-03-24T03:21:27;3.23;;;2.97;;
18286;SDS011;9269;50.838;12.094;2023-03-24T03:24:02;3.50;;;3.20;;
18286;SDS011;9269;50.838;12.094;2023-03-24T03:26:36;4.00;;;3.40;;
18286;SDS011;9269;50.838;12.094;2023-03-24T03:29:07;3.47;;;3.17;;
18286;SDS011;9269;50.838;12.094;2023-03-24T03:31:39;3.40;;;3.10;;
18286;SDS011;9269;50.838;12.094;2023-03-24T03:34:11;3.57;;;3.27;;
18286;SDS011;9269;50.838;12.094;2023-03-24T03:36:46;3.60;;;3.30;;
18286;SDS011;9269;50.838;12.094;2023-03-24T03:39:18;3.37;;;3.07;;
18286;SDS011;9269;50.838;12.094;2023-03-24T03:41:53;3.53;;;3.23;;
18286;SDS011;9269;50.838;12.094;2023-03-24T03:44:23;3.43;;;3.13;;
18286;SDS011;9269;50.838;12.094;2023-03-24T03:46:52;3.43;;;3.10;;
18286;SDS011;9269;50.838;12.094;2023-03-24T03:49:22;3.60;;;3.30;;
18286;SDS011;9269;50.838;12.094;2023-03-24T03:51:51;4.63;;;3.93;;
18286;SDS011;9269;50.838;12.094;2023-03-24T03:54:21;4.70;;;4.20;;
18286;SDS011;9269;50.838;12.094;2023-03-24T03:56:53;6.90;;;4.90;;
18286;SDS011;9269;50.838;12.094;2023-03-24T03:59:24;5.40;;;4.70;;
18286;SDS011;9269;50.838;12.094;2023-03-24T04:01:54;5.20;;;4.70;;
18286;SDS011;9269;50.838;12.094;2023-03-24T04:04:30;4.80;;;4.40;;
18286;SDS011;9269;50.838;12.094;2023-03-24T04:07:34;5.13;;;4.40;;
18286;SDS011;9269;50.838;12.094;2023-03-24T04:10:12;4.97;;;4.50;;
18286;SDS011;9269;50.838;12.094;2023-03-24T04:12:51;4.73;;;4.30;;
18286;SDS011;9269;50.838;12.094;2023-03-24T04:15:34;5.10;;;4.60;;
18286;SDS011;9269;50.838;12.094;2023-03-24T04:18:14;6.03;;;5.13;;
18286;SDS011;9269;50.838;12.094;2023-03-24T04:21:05;5.60;;;4.90;;
18286;SDS011;9269;50.838;12.094;2023-03-24T04:23:47;5.43;;;4.60;;
18286;SDS011;9269;50.838;12.094;2023-03-24T04:26:23;5.77;;;4.73;;
18286;SDS011;9269;50.838;12.094;2023-03-24T04:29:00;5.87;;;5.07;;
18286;SDS011;9269;50.838;12.094;2023-03-24T04:31:36;5.40;;;4.70;;
18286;SDS011;9269;50.838;12.094;2023-03-24T04:34:09;5.43;;;4.90;;
18286;SDS011;9269;50.838;12.094;2023-03-24T04:36:43;6.03;;;4.17;;
18286;SDS011;9269;50.838;12.094;2023-03-24T04:39:16;4.40;;;4.00;;
18286;SDS011;9269;50.838;12.094;2023-03-24T04:41:54;4.73;;;3.90;;
18286;SDS011;9269;50.838;12.094;2023-03-24T04:44:25;4.23;;;3.83;;
18286;SDS011;9269;50.838;12.094;2023-03-24T04:46:55;4.03;;;3.70;;
18286;SDS011;9269;50.838;12.094;2023-03-24T04:49:24;4.07;;;3.67;;
18286;SDS011;9269;50.838;12.094;2023-03-24T04:51:53;4.40;;;3.60;;
18286;SDS011;9269;50.838;12.094;2023-03-24T04:54:22;3.70;;;3.40;;
18286;SDS011;9269;50.838;12.094;2023-03-24T04:56:52;3.60;;;3.30;;
18286;SDS011;9269;50.838;12.094;2023-03-24T04:59:21;3.27;;;2.97;;
18286;SDS011;9269;50.838;12.094;2023-03-24T05:01:51;4.80;;;3.50;;
18286;SDS011;9269;50.838;12.094;2023-03-24T05:04:20;3.53;;;3.23;;
18286;SDS011;9269;50.838;12.094;2023-03-24T05:06:49;3.80;;;3.50;;
18286;SDS011;9269;50.838;12.094;2023-03-24T05:09:19;4.97;;;3.30;;
18286;SDS011;9269;50.838;12.094;2023-03-24T05:11:49;3.83;;;3.53;;
18286;SDS011;9269;50.838;12.094;2023-03-24T05:14:18;3.50;;;3.20;;
18286;SDS011;9269;50.838;12.094;2023-03-24T05:16:47;3.90;;;3.60;;
18286;SDS011;9269;50.838;12.094;2023-03-24T05:19:16;4.20;;;3.47;;
18286;SDS011;9269;50.838;12.094;2023-03-24T05:21:45;4.87;;;3.60;;
18286;SDS011;9269;50.838;12.094;2023-03-24T05:24:17;4.27;;;3.40;;
18286;SDS011;9269;50.838;12.094;2023-03-24T05:26:47;3.87;;;3.40;;
18286;SDS011;9269;50.838;12.094;2023-03-24T05:29:16;3.77;;;3.47;;
18286;SDS011;9269;50.838;12.094;2023-03-24T05:31:44;3.73;;;3.43;;
18286;SDS011;9269;50.838;12.094;2023-03-24T05:34:13;3.80;;;3.50;;
18286;SDS011;9269;50.838;12.094;2023-03-24T05:36:45;3.90;;;3.50;;
18286;SDS011;9269;50.838;12.094;2023-03-24T05:39:13;3.50;;;3.20;;
18286;SDS011;9269;50.838;12.094;2023-03-24T05:41:42;3.57;;;3.27;;
18286;SDS011;9269;50.838;12.094;2023-03-24T05:44:11;3.93;;;3.03;;
18286;SDS011;9269;50.838;12.094;2023-03-24T05:46:40;5.17;;;3.37;;
18286;SDS011;9269;50.838;12.094;2023-03-24T05:49:08;3.63;;;3.33;;
18286;SDS011;9269;50.838;12.094;2023-03-24T05:51:39;3.80;;;3.40;;
18286;SDS011;9269;50.838;12.094;2023-03-24T05:54:09;3.60;;;3.30;;
18286;SDS011;9269;50.838;12.094;2023-03-24T05:56:38;3.53;;;3.17;;
18286;SDS011;9269;50.838;12.094;2023-03-24T05:59:06;3.77;;;3.30;;
18286;SDS011;9269;50.838;12.094;2023-03-24T06:01:35;3.67;;;3.37;;
18286;SDS011;9269;50.838;12.094;2023-03-24T06:04:03;3.87;;;3.40;;
18286;SDS011;9269;50.838;12.094;2023-03-24T06:06:35;3.73;;;3.43;;
18286;SDS011;9269;50.838;12.094;2023-03-24T06:09:04;3.60;;;3.30;;
18286;SDS011;9269;50.838;12.094;2023-03-24T06:11:34;4.00;;;3.60;;
18286;SDS011;9269;50.838;12.094;2023-03-24T06:14:08;4.17;;;3.40;;
18286;SDS011;9269;50.838;12.094;2023-03-24T06:16:38;3.90;;;3.27;;
18286;SDS011;9269;50.838;12.094;2023-03-24T06:19:06;3.43;;;3.13;;
18286;SDS011;9269;50.838;12.094;2023-03-24T06:21:36;3.60;;;3.23;;
18286;SDS011;9269;50.838;12.094;2023-03-24T06:24:05;3.93;;;3.40;;
18286;SDS011;9269;50.838;12.094;2023-03-24T06:26:35;4.07;;;3.60;;
18286;SDS011;9269;50.838;12.094;2023-03-24T06:29:04;3.70;;;3.40;;
18286;SDS011;9269;50.838;12.094;2023-03-24T06:31:34;4.33;;;3.30;;
18286;SDS011;9269;50.838;12.094;2023-03-24T06:34:03;4.07;;;3.27;;
18286;SDS011;9269;50.838;12.094;2023-03-24T06:36:32;3.30;;;3.10;;
18286;SDS011;9269;50.838;12.094;2023-03-24T06:39:01;3.40;;;3.10;;
18286;SDS011;9269;50.838;12.094;2023-03-24T06:41:32;3.50;;;3.20;;
18286;SDS011;9269;50.838;12.094;2023-03-24T06:44:03;3.37;;;3.10;;
18286;SDS011;9269;50.838;12.094;2023-03-24T06:46:33;3.43;;;3.17;;
18286;SDS011;9269;50.838;12.094;2023-03-24T06:49:02;3.30;;;2.83;;
18286;SDS011;9269;50.838;12.094;2023-03-24T06:51:30;3.90;;;3.60;;
18286;SDS011;9269;50.838;12.094;2023-03-24T06:53:58;4.20;;;3.13;;
18286;SDS011;9269;50.838;12.094;2023-03-24T06:56:27;13.93;;;9.80;;
18286;SDS011;9269;50.838;12.094;2023-03-24T06:58:56;20.83;;;13.40;;
18286;SDS011;9269;50.838;12.094;2023-03-24T07:01:26;10.20;;;9.03;;
18286;SDS011;9269;50.838;12.094;2023-03-24T07:03:55;5.03;;;4.53;;
18286;SDS011;9269;50.838;12.094;2023-03-24T07:06:25;4.33;;;4.00;;
18286;SDS011;9269;50.838;12.094;2023-03-24T07:08:55;8.40;;;6.90;;
18286;SDS011;9269;50.838;12.094;2023-03-24T07:11:24;10.23;;;6.63;;
18286;SDS011;9269;50.838;12.094;2023-03-24T07:13:55;10.57;;;7.17;;
18286;SDS011;9269;50.838;12.094;2023-03-24T07:16:23;7.67;;;5.77;;
18286;SDS011;9269;50.838;12.094;2023-03-24T07:18:54;5.93;;;5.33;;
18286;SDS011;9269;50.838;12.094;2023-03-24T07:21:23;6.87;;;6.27;;
18286;SDS011;9269;50.838;12.094;2023-03-24T07:23:51;6.00;;;5.20;;
18286;SDS011;9269;50.838;12.094;2023-03-24T07:26:22;4.53;;;4.13;;
18286;SDS011;9269;50.838;12.094;2023-03-24T07:28:51;4.13;;;3.53;;
18286;SDS011;9269;50.838;12.094;2023-03-24T07:31:20;3.70;;;3.07;;
18286;SDS011;9269;50.838;12.094;2023-03-24T07:33:51;4.87;;;4.10;;
18286;SDS011;9269;50.838;12.094;2023-03-24T07:36:20;7.07;;;4.63;;
18286;SDS011;9269;50.838;12.094;2023-03-24T07:38:48;8.93;;;5.10;;
18286;SDS011;9269;50.838;12.094;2023-03-24T07:41:17;13.73;;;8.63;;
18286;SDS011;9269;50.838;12.094;2023-03-24T07:43:48;9.83;;;7.17;;
18286;SDS011;9269;50.838;12.094;2023-03-24T07:46:16;7.77;;;6.43;;
18286;SDS011;9269;50.838;12.094;2023-03-24T07:48:45;6.77;;;5.40;;
18286;SDS011;9269;50.838;12.094;2023-03-24T07:51:14;5.37;;;4.37;;
18286;SDS011;9269;50.838;12.094;2023-03-24T07:53:45;5.20;;;4.33;;
18286;SDS011;9269;50.838;12.094;2023-03-24T07:56:14;4.00;;;3.60;;
18286;SDS011;9269;50.838;12.094;2023-03-24T07:58:42;4.63;;;3.97;;
18286;SDS011;9269;50.838;12.094;2023-03-24T08:01:11;3.83;;;3.50;;
18286;SDS011;9269;50.838;12.094;2023-03-24T08:03:40;3.67;;;3.30;;
18286;SDS011;9269;50.838;12.094;2023-03-24T08:06:10;6.83;;;5.07;;
18286;SDS011;9269;50.838;12.094;2023-03-24T08:08:42;4.87;;;4.00;;
18286;SDS011;9269;50.838;12.094;2023-03-24T08:11:10;4.93;;;4.43;;
18286;SDS011;9269;50.838;12.094;2023-03-24T08:13:38;6.03;;;3.53;;
18286;SDS011;9269;50.838;12.094;2023-03-24T08:16:08;4.83;;;4.00;;
18286;SDS011;9269;50.838;12.094;2023-03-24T08:18:37;7.87;;;4.87;;
18286;SDS011;9269;50.838;12.094;2023-03-24T08:21:06;5.67;;;4.20;;
18286;SDS011;9269;50.838;12.094;2023-03-24T08:23:37;4.50;;;3.50;;
18286;SDS011;9269;50.838;12.094;2023-03-24T08:26:07;3.97;;;3.33;;
18286;SDS011;9269;50.838;12.094;2023-03-24T08:28:37;3.80;;;3.50;;
18286;SDS011;9269;50.838;12.094;2023-03-24T08:31:09;8.07;;;5.03;;
18286;SDS011;9269;50.838;12.094;2023-03-24T08:33:39;5.17;;;4.00;;
18286;SDS011;9269;50.838;12.094;2023-03-24T08:36:08;6.17;;;4.27;;
18286;SDS011;9269;50.838;12.094;2023-03-24T08:38:37;4.83;;;3.90;;
18286;SDS011;9269;50.838;12.094;2023-03-24T08:41:07;4.80;;;4.13;;
18286;SDS011;9269;50.838;12.094;2023-03-24T08:43:36;4.27;;;3.80;;
18286;SDS011;9269;50.838;12.094;2023-03-24T08:46:06;4.27;;;3.87;;
18286;SDS011;9269;50.838;12.094;2023-03-24T08:48:42;5.23;;;3.53;;
18286;SDS011;9269;50.838;12.094;2023-03-24T08:51:12;4.53;;;3.67;;
18286;SDS011;9269;50.838;12.094;2023-03-24T08:53:44;4.70;;;4.20;;
18286;SDS011;9269;50.838;12.094;2023-03-24T08:56:14;13.50;;;8.87;;
18286;SDS011;9269;50.838;12.094;2023-03-24T08:58:43;12.73;;;9.43;;
18286;SDS011;9269;50.838;12.094;2023-03-24T09:01:14;14.10;;;10.60;;
18286;SDS011;9269;50.838;12.094;2023-03-24T09:03:44;6.13;;;5.33;;
18286;SDS011;9269;50.838;12.094;2023-03-24T09:06:15;6.77;;;5.80;;
18286;SDS011;9269;50.838;12.094;2023-03-24T09:08:46;5.40;;;4.90;;
18286;SDS011;9269;50.838;12.094;2023-03-24T09:11:17;6.77;;;5.07;;
18286;SDS011;9269;50.838;12.094;2023-03-24T09:13:49;7.40;;;5.70;;
18286;SDS011;9269;50.838;12.094;2023-03-24T09:16:20;7.50;;;4.63;;
18286;SDS011;9269;50.838;12.094;2023-03-24T09:18:49;6.47;;;4.23;;
18286;SDS011;9269;50.838;12.094;2023-03-24T09:21:17;5.37;;;4.17;;
18286;SDS011;9269;50.838;12.094;2023-03-24T09:23:48;5.10;;;3.90;;
18286;SDS011;9269;50.838;12.094;2023-03-24T09:26:17;3.73;;;2.53;;
18286;SDS011;9269;50.838;12.094;2023-03-24T09:28:46;6.37;;;4.30;;
18286;SDS011;9269;50.838;12.094;2023-03-24T09:31:14;2.70;;;2.50;;
18286;SDS011;9269;50.838;12.094;2023-03-24T09:33:43;4.10;;;3.10;;
18286;SDS011;9269;50.838;12.094;2023-03-24T09:36:15;5.43;;;3.70;;
18286;SDS011;9269;50.838;12.094;2023-03-24T09:38:43;8.20;;;4.83;;
18286;SDS011;9269;50.838;12.094;2023-03-24T09:41:13;6.27;;;4.27;;
18286;SDS011;9269;50.838;12.094;2023-03-24T09:43:49;5.80;;;3.13;;
18286;SDS011;9269;50.838;12.094;2023-03-24T09:46:25;2.93;;;2.20;;
18286;SDS011;9269;50.838;12.094;2023-03-24T09:48:57;2.57;;;2.00;;
18286;SDS011;9269;50.838;12.094;2023-03-24T09:51:26;4.77;;;3.03;;
18286;SDS011;9269;50.838;12.094;2023-03-24T09:54:04;4.97;;;3.10;;
18286;SDS011;9269;50.838;12.094;2023-03-24T09:56:42;3.27;;;2.70;;
18286;SDS011;9269;50.838;12.094;2023-03-24T09:59:18;3.73;;;2.23;;
18286;SDS011;9269;50.838;12.094;2023-03-24T10:01:48;1.87;;;1.77;;
18286;SDS011;9269;50.838;12.094;2023-03-24T10:04:18;2.87;;;2.27;;
18286;SDS011;9269;50.838;12.094;2023-03-24T10:06:53;1.70;;;1.60;;
18286;SDS011;9269;50.838;12.094;2023-03-24T10:09:25;2.23;;;2.03;;
18286;SDS011;9269;50.838;12.094;2023-03-24T10:11:59;1.63;;;1.53;;
18286;SDS011;9269;50.838;12.094;2023-03-24T10:14:43;1.77;;;1.50;;
18286;SDS011;9269;50.838;12.094;2023-03-24T10:17:21;2.30;;;2.10;;
18286;SDS011;9269;50.838;12.094;2023-03-24T10:19:59;2.17;;;1.60;;
18286;SDS011;9269;50.838;12.094;2023-03-24T10:22:39;1.70;;;1.60;;
18286;SDS011;9269;50.838;12.094;2023-03-24T10:25:35;2.33;;;1.93;;
18286;SDS011;9269;50.838;12.094;2023-03-24T10:28:17;4.10;;;2.83;;
18286;SDS011;9269;50.838;12.094;2023-03-24T10:30:51;2.87;;;2.57;;
18286;SDS011;9269;50.838;12.094;2023-03-24T10:33:25;3.83;;;2.40;;
18286;SDS011;9269;50.838;12.094;2023-03-24T10:35:54;5.77;;;3.73;;
18286;SDS011;9269;50.838;12.094;2023-03-24T10:38:28;7.67;;;4.00;;
18286;SDS011;9269;50.838;12.094;2023-03-24T10:40:58;4.90;;;3.03;;
18286;SDS011;9269;50.838;12.094;2023-03-24T10:43:27;5.77;;;3.30;;
18286;SDS011;9269;50.838;12.094;2023-03-24T10:45:57;3.93;;;3.17;;
18286;SDS011;9269;50.838;12.094;2023-03-24T10:48:32;7.10;;;4.90;;
18286;SDS011;9269;50.838;12.094;2023-03-24T10:51:02;8.17;;;4.90;;
18286;SDS011;9269;50.838;12.094;2023-03-24T10:53:31;16.53;;;8.40;;
18286;SDS011;9269;50.838;12.094;2023-03-24T10:56:00;10.17;;;5.90;;
18286;SDS011;9269;50.838;12.094;2023-03-24T10:58:35;13.57;;;6.93;;
18286;SDS011;9269;50.838;12.094;2023-03-24T11:01:21;6.60;;;4.70;;
18286;SDS011;9269;50.838;12.094;2023-03-24T11:03:56;10.00;;;6.07;;
18286;SDS011;9269;50.838;12.094;2023-03-24T11:06:33;8.73;;;5.00;;
18286;SDS011;9269;50.838;12.094;2023-03-24T11:09:06;8.00;;;5.17;;
18286;SDS011;9269;50.838;12.094;2023-03-24T11:11:36;4.73;;;3.40;;
18286;SDS011;9269;50.838;12.094;2023-03-24T11:14:16;7.73;;;4.00;;
18286;SDS011;9269;50.838;12.094;2023-03-24T11:16:50;6.10;;;3.60;;
18286;SDS011;9269;50.838;12.094;2023-03-24T11:19:20;5.67;;;3.30;;
18286;SDS011;9269;50.838;12.094;2023-03-24T11:22:02;5.77;;;3.50;;
18286;SDS011;9269;50.838;12.094;2023-03-24T11:24:35;4.37;;;2.87;;
18286;SDS011;9269;50.838;12.094;2023-03-24T11:27:04;13.97;;;7.80;;
18286;SDS011;9269;50.838;12.094;2023-03-24T11:29:36;7.63;;;4.73;;
18286;SDS011;9269;50.838;12.094;2023-03-24T11:32:11;8.47;;;5.10;;
18286;SDS011;9269;50.838;12.094;2023-03-24T11:34:43;7.43;;;4.77;;
18286;SDS011;9269;50.838;12.094;2023-03-24T11:37:16;7.73;;;5.00;;
18286;SDS011;9269;50.838;12.094;2023-03-24T11:40:03;8.50;;;5.30;;
18286;SDS011;9269;50.838;12.094;2023-03-24T11:42:43;4.67;;;3.07;;
18286;SDS011;9269;50.838;12.094;2023-03-24T11:45:20;8.63;;;5.63;;
18286;SDS011;9269;50.838;12.094;2023-03-24T11:47:54;5.10;;;3.10;;
18286;SDS011;9269;50.838;12.094;2023-03-24T11:50:26;2.60;;;2.40;;
18286;SDS011;9269;50.838;12.094;2023-03-24T11:52:59;2.83;;;2.60;;
18286;SDS011;9269;50.838;12.094;2023-03-24T11:55:38;4.13;;;2.70;;
18286;SDS011;9269;50.838;12.094;2023-03-24T11:58:16;3.87;;;3.20;;
18286;SDS011;9269;50.838;12.094;2023-03-24T12:00:54;4.47;;;3.67;;
18286;SDS011;9269;50.838;12.094;2023-03-24T12:06:28;3.30;;;3.00;;
18286;SDS011;9269;50.838;12.094;2023-03-24T12:09:07;3.80;;;3.10;;
18286;SDS011;9269;50.838;12.094;2023-03-24T12:11:50;4.13;;;3.50;;
18286;SDS011;9269;50.838;12.094;2023-03-24T12:14:36;3.33;;;3.07;;
18286;SDS011;9269;50.838;12.094;2023-03-24T12:17:14;4.43;;;4.03;;
18286;SDS011;9269;50.838;12.094;2023-03-24T12:19:50;5.17;;;4.67;;
18286;SDS011;9269;50.838;12.094;2023-03-24T12:22:34;4.60;;;3.80;;
18286;SDS011;9269;50.838;12.094;2023-03-24T12:25:21;4.23;;;3.83;;
18286;SDS011;9269;50.838;12.094;2023-03-24T12:28:05;4.07;;;3.10;;
18286;SDS011;9269;50.838;12.094;2023-03-24T12:30:47;2.13;;;1.00;;
18286;SDS011;9269;50.838;12.094;2023-03-24T12:33:26;4.67;;;1.80;;
18286;SDS011;9269;50.838;12.094;2023-03-24T12:36:14;2.30;;;1.50;;
18286;SDS011;9269;50.838;12.094;2023-03-24T12:39:07;2.53;;;1.90;;
18286;SDS011;9269;50.838;12.094;2023-03-24T12:41:51;2.73;;;1.77;;
18286;SDS011;9269;50.838;12.094;2023-03-24T12:50:30;2.00;;;1.70;;
18286;SDS011;9269;50.838;12.094;2023-03-24T12:53:27;1.90;;;1.53;;
18286;SDS011;9269;50.838;12.094;2023-03-24T12:56:03;2.27;;;1.70;;
18286;SDS011;9269;50.838;12.094;2023-03-24T12:58:38;2.10;;;1.77;;
18286;SDS011;9269;50.838;12.094;2023-03-24T13:01:11;1.90;;;1.70;;
18286;SDS011;9269;50.838;12.094;2023-03-24T13:03:45;2.70;;;1.90;;
18286;SDS011;9269;50.838;12.094;2023-03-24T13:06:16;2.53;;;2.33;;
18286;SDS011;9269;50.838;12.094;2023-03-24T13:08:54;3.40;;;1.77;;
18286;SDS011;9269;50.838;12.094;2023-03-24T13:11:34;2.67;;;1.77;;
18286;SDS011;9269;50.838;12.094;2023-03-24T13:14:09;3.90;;;2.00;;
18286;SDS011;9269;50.838;12.094;2023-03-24T13:16:42;2.73;;;2.33;;
18286;SDS011;9269;50.838;12.094;2023-03-24T13:19:14;3.50;;;1.80;;
18286;SDS011;9269;50.838;12.094;2023-03-24T13:21:49;2.53;;;2.07;;
18286;SDS011;9269;50.838;12.094;2023-03-24T13:24:20;1.97;;;1.70;;
18286;SDS011;9269;50.838;12.094;2023-03-24T13:26:51;2.27;;;1.77;;
18286;SDS011;9269;50.838;12.094;2023-03-24T13:29:49;2.43;;;1.70;;
18286;SDS011;9269;50.838;12.094;2023-03-24T13:32:35;3.10;;;1.90;;
18286;SDS011;9269;50.838;12.094;2023-03-24T13:35:10;2.10;;;1.90;;
18286;SDS011;9269;50.838;12.094;2023-03-24T13:37:45;4.90;;;2.23;;
18286;SDS011;9269;50.838;12.094;2023-03-24T13:40:20;2.20;;;1.50;;
18286;SDS011;9269;50.838;12.094;2023-03-24T13:42:51;2.10;;;1.47;;
18286;SDS011;9269;50.838;12.094;2023-03-24T13:45:24;2.13;;;1.53;;
18286;SDS011;9269;50.838;12.094;2023-03-24T13:48:03;2.67;;;1.77;;
18286;SDS011;9269;50.838;12.094;2023-03-24T13:50:46;3.43;;;1.87;;
18286;SDS011;9269;50.838;12.094;2023-03-24T13:53:24;3.83;;;2.43;;
18286;SDS011;9269;50.838;12.094;2023-03-24T13:56:01;5.63;;;3.90;;
18286;SDS011;9269;50.838;12.094;2023-03-24T14:01:34;4.57;;;3.30;;
18286;SDS011;9269;50.838;12.094;2023-03-24T14:04:17;4.80;;;4.10;;
18286;SDS011;9269;50.838;12.094;2023-03-24T14:06:50;8.00;;;5.00;;
18286;SDS011;9269;50.838;12.094;2023-03-24T14:09:20;5.73;;;3.20;;
18286;SDS011;9269;50.838;12.094;2023-03-24T14:17:41;3.20;;;2.23;;
18286;SDS011;9269;50.838;12.094;2023-03-24T14:20:12;2.40;;;2.13;;
18286;SDS011;9269;50.838;12.094;2023-03-24T14:22:51;2.97;;;2.13;;
18286;SDS011;9269;50.838;12.094;2023-03-24T14:25:25;2.37;;;2.00;;
18286;SDS011;9269;50.838;12.094;2023-03-24T14:28:08;3.57;;;2.93;;
18286;SDS011;9269;50.838;12.094;2023-03-24T14:31:00;6.30;;;4.60;;
18286;SDS011;9269;50.838;12.094;2023-03-24T14:33:39;5.33;;;4.13;;
18286;SDS011;9269;50.838;12.094;2023-03-24T14:36:12;3.37;;;2.23;;
18286;SDS011;9269;50.838;12.094;2023-03-24T14:38:49;2.57;;;2.07;;
18286;SDS011;9269;50.838;12.094;2023-03-24T14:41:25;2.67;;;1.90;;
18286;SDS011;9269;50.838;12.094;2023-03-24T14:43:59;2.27;;;1.70;;
18286;SDS011;9269;50.838;12.094;2023-03-24T14:46:34;1.73;;;1.60;;
18286;SDS011;9269;50.838;12.094;2023-03-24T14:49:13;1.73;;;1.50;;
18286;SDS011;9269;50.838;12.094;2023-03-24T14:51:48;1.83;;;1.30;;
18286;SDS011;9269;50.838;12.094;2023-03-24T14:54:22;1.97;;;1.27;;
18286;SDS011;9269;50.838;12.094;2023-03-24T14:56:55;1.47;;;1.17;;
18286;SDS011;9269;50.838;12.094;2023-03-24T14:59:28;3.13;;;1.63;;
18286;SDS011;9269;50.838;12.094;2023-03-24T15:02:04;1.90;;;1.50;;
18286;SDS011;9269;50.838;12.094;2023-03-24T15:07:57;1.87;;;1.47;;
18286;SDS011;9269;50.838;12.094;2023-03-24T15:10:35;1.50;;;1.40;;
18286;SDS011;9269;50.838;12.094;2023-03-24T15:13:25;3.00;;;1.30;;
18286;SDS011;9269;50.838;12.094;2023-03-24T15:16:02;1.67;;;1.20;;
18286;SDS011;9269;50.838;12.094;2023-03-24T15:18:33;1.30;;;1.20;;
18286;SDS011;9269;50.838;12.094;2023-03-24T15:21:13;2.00;;;1.37;;
18286;SDS011;9269;50.838;12.094;2023-03-24T15:23:45;1.30;;;1.20;;
18286;SDS011;9269;50.838;12.094;2023-03-24T15:26:15;1.33;;;1.10;;
18286;SDS011;9269;50.838;12.094;2023-03-24T15:28:57;1.50;;;1.10;;
18286;SDS011;9269;50.838;12.094;2023-03-24T15:31:28;1.13;;;1.03;;
18286;SDS011;9269;50.838;12.094;2023-03-24T15:34:06;1.10;;;1.00;;
18286;SDS011;9269;50.838;12.094;2023-03-24T15:36:52;1.43;;;1.00;;
18286;SDS011;9269;50.838;12.094;2023-03-24T15:39:24;2.60;;;1.30;;
18286;SDS011;9269;50.838;12.094;2023-03-24T15:41:54;2.33;;;1.63;;
18286;SDS011;9269;50.838;12.094;2023-03-24T15:44:23;2.30;;;1.30;;
18286;SDS011;9269;50.838;12.094;2023-03-24T15:46:55;1.20;;;1.10;;